Time;durP1;ratioP1;P1;durP2;ratioP2;P2;SDS_P1;SDS_P2;PMS_P1;PMS_P2;Temp;Humidity;BMP_temperature;BMP_pressure;BME280_temperature;BME280_humidity;BME280_pressure;Samples;Min_cycle;Max_cycle;Signal;HPM_P1;HPM_P2
2022/05/01 00:02:08;;;;;;;57.03;51.38;;;;;;;13.25;59.41;95680.91;4972514;28;20027;-74
2022/05/01 00:04:34;;;;;;;34.58;30.98;;;;;;;13.57;58.69;95694.28;4972518;28;20059;-74
2022/05/01 00:06:59;;;;;;;40.70;36.72;;;;;;;14.07;58.02;95715.31;4972413;28;20027;-74
2022/05/01 00:09:25;;;;;;;33.55;29.95;;;;;;;13.84;58.38;95687.91;4971738;28;20034;-74
2022/05/01 00:11:50;;;;;;;153.82;133.80;;;;;;;14.18;56.79;95661.22;4971629;28;20106;-74
2022/05/01 00:14:17;;;;;;;41.90;37.72;;;;;;;13.44;59.80;95715.41;4972319;28;20046;-75
2022/05/01 00:16:43;;;;;;;48.35;44.10;;;;;;;13.37;59.25;95691.03;4972303;28;20681;-75
2022/05/01 00:19:08;;;;;;;33.08;30.13;;;;;;;13.11;60.65;95687.41;4971716;28;20055;-75
2022/05/01 00:21:34;;;;;;;21.83;18.23;;;;;;;13.66;59.87;95711.88;4972147;28;20832;-74
2022/05/01 00:24:00;;;;;;;28.45;25.70;;;;;;;12.55;61.89;95670.09;4972246;28;20030;-74
2022/05/01 00:26:27;;;;;;;28.63;25.83;;;;;;;12.42;63.22;95699.19;4971199;28;20053;-74
2022/05/01 00:28:52;;;;;;;26.90;22.08;;;;;;;12.16;65.15;95706.97;4971721;28;20082;-74
2022/05/01 00:31:18;;;;;;;27.17;24.77;;;;;;;12.12;65.30;95713.97;4971979;28;20026;-74
2022/05/01 00:36:27;;;;;;;24.27;22.95;;;;;;;12.72;63.44;95718.25;4972144;28;20046;-74
2022/05/01 00:38:57;;;;;;;38.40;35.28;;;;;;;13.10;62.20;95723.22;4971464;28;20387;-74
2022/05/01 00:41:23;;;;;;;35.22;32.90;;;;;;;12.52;63.00;95684.81;4969245;28;20035;-74
2022/05/01 00:44:08;;;;;;;1031.30;529.15;;;;;;;11.96;64.08;95670.06;4972087;28;20114;-74
2022/05/01 00:46:36;;;;;;;1999.90;999.90;;;;;;;12.25;64.42;95682.25;4972017;28;20030;-73
2022/05/01 00:49:04;;;;;;;1999.90;999.90;;;;;;;12.18;64.65;95691.47;4971778;28;20117;-74
2022/05/01 00:51:32;;;;;;;1999.90;999.90;;;;;;;12.83;62.72;95711.59;4954105;28;20031;-73
2022/05/01 00:53:58;;;;;;;1999.90;999.90;;;;;;;12.44;64.40;95718.38;4971697;28;20023;-74
2022/05/01 00:56:24;;;;;;;1999.90;999.90;;;;;;;12.75;63.17;95723.00;4970773;28;20089;-73
2022/05/01 00:58:51;;;;;;;1999.90;999.90;;;;;;;12.18;63.82;95634.66;4971383;28;20022;-74
2022/05/01 01:01:19;;;;;;;1999.90;999.90;;;;;;;12.65;63.24;95685.88;4971540;28;20035;-73
2022/05/01 01:03:44;;;;;;;1999.90;999.90;;;;;;;13.01;62.97;95709.81;4971645;28;20395;-75
2022/05/01 01:06:10;;;;;;;1999.90;999.90;;;;;;;13.14;62.42;95692.13;4971872;28;20028;-74
2022/05/01 01:08:36;;;;;;;1999.90;999.90;;;;;;;12.70;62.74;95672.41;4971150;28;20030;-72
2022/05/01 01:11:01;;;;;;;1999.90;999.90;;;;;;;12.83;62.05;95652.84;4970914;28;20027;-75
2022/05/01 01:13:29;;;;;;;1999.90;999.90;;;;;;;13.07;62.49;95684.56;4971594;28;20019;-74
2022/05/01 01:15:57;;;;;;;1999.90;999.90;;;;;;;13.43;61.57;95670.31;4971368;28;20027;-74
2022/05/01 01:18:24;;;;;;;1999.90;999.90;;;;;;;13.51;61.07;95702.41;4971029;28;20030;-74
2022/05/01 01:20:53;;;;;;;1999.90;999.90;;;;;;;13.29;62.03;95705.13;4971368;28;20105;-75
2022/05/01 01:23:20;;;;;;;1999.90;999.90;;;;;;;13.73;60.56;95674.03;4971380;28;20471;-74
2022/05/01 01:25:47;;;;;;;1999.90;999.90;;;;;;;13.44;61.28;95707.41;4970376;28;20394;-74
2022/05/01 01:28:14;;;;;;;1999.90;999.90;;;;;;;12.91;62.94;95683.38;4971069;28;20368;-74
2022/05/01 01:33:28;;;;;;;1999.90;999.90;;;;;;;13.20;62.52;95656.97;4971918;28;20089;-74
2022/05/01 01:35:55;;;;;;;1999.90;999.90;;;;;;;13.12;63.14;95697.00;4971554;28;20105;-74
2022/05/01 01:38:21;;;;;;;1999.90;999.90;;;;;;;12.68;63.59;95661.22;4970717;28;20030;-75
2022/05/01 01:40:51;;;;;;;1999.90;999.90;;;;;;;13.29;62.65;95699.00;4971248;28;20026;-74
2022/05/01 01:43:23;;;;;;;1999.90;999.90;;;;;;;13.14;62.82;95676.91;4971375;28;20054;-73
2022/05/01 01:45:49;;;;;;;1999.90;999.90;;;;;;;13.23;62.61;95676.97;4971248;28;20161;-74
2022/05/01 01:48:16;;;;;;;1999.90;999.90;;;;;;;13.20;62.75;95691.69;4970803;28;20109;-75
2022/05/01 01:50:43;;;;;;;1999.90;999.90;;;;;;;13.25;62.61;95674.78;4971466;28;20364;-75
2022/05/01 01:53:10;;;;;;;1999.90;999.90;;;;;;;13.01;63.18;95678.56;4970637;28;20658;-74
2022/05/01 01:55:36;;;;;;;1999.90;999.90;;;;;;;13.21;63.04;95700.53;4971285;28;20065;-74
2022/05/01 01:58:03;;;;;;;1999.90;999.90;;;;;;;13.02;62.90;95669.47;4970786;28;20391;-74
2022/05/01 02:00:28;;;;;;;1999.90;999.90;;;;;;;13.11;63.26;95679.41;4971012;28;20479;-75
2022/05/01 02:03:03;;;;;;;1999.90;999.90;;;;;;;12.78;63.89;95663.66;4969198;28;20046;-74
2022/05/01 02:05:30;;;;;;;1999.90;999.90;;;;;;;13.02;64.28;95679.34;4957126;28;20101;-75
2022/05/01 02:07:55;;;;;;;1999.90;999.90;;;;;;;12.80;64.59;95684.72;4974594;28;20030;-75
2022/05/01 02:10:21;;;;;;;1999.90;999.90;;;;;;;12.95;64.45;95692.34;4972976;28;20026;-75
2022/05/01 02:12:46;;;;;;;1999.90;999.90;;;;;;;12.65;63.63;95593.25;4973540;28;20030;-73
2022/05/01 02:15:11;;;;;;;1999.90;999.90;;;;;;;13.26;63.30;95679.03;4974777;28;20026;-75
2022/05/01 02:17:40;;;;;;;1999.90;999.90;;;;;;;13.22;63.79;95696.78;4974514;28;20506;-74
2022/05/01 02:20:07;;;;;;;1999.90;999.90;;;;;;;12.74;64.88;95689.38;4974002;28;20066;-75
2022/05/01 02:22:32;;;;;;;1999.90;999.90;;;;;;;13.45;63.53;95674.22;4957238;28;20037;-75
2022/05/01 02:24:58;;;;;;;1999.90;999.90;;;;;;;12.92;64.20;95650.25;4972975;28;20023;-74
2022/05/01 02:27:23;;;;;;;1999.90;999.90;;;;;;;12.77;65.06;95659.41;4973477;28;20403;-74
2022/05/01 02:29:48;;;;;;;1999.90;999.90;;;;;;;12.87;65.51;95680.53;4973815;28;20034;-75
2022/05/01 02:32:14;;;;;;;1999.90;999.90;;;;;;;12.54;66.04;95650.63;4972908;28;20030;-75
2022/05/01 02:34:40;;;;;;;1999.90;999.90;;;;;;;12.33;66.60;95646.84;4974387;28;20387;-76
2022/05/01 02:37:06;;;;;;;1999.90;999.90;;;;;;;13.05;66.04;95686.78;4974210;28;20023;-75
2022/05/01 02:39:34;;;;;;;1999.90;999.90;;;;;;;12.15;67.76;95638.72;4973033;28;20177;-75
2022/05/01 02:42:00;;;;;;;1999.90;999.90;;;;;;;12.56;67.40;95679.69;4974317;28;20101;-74
2022/05/01 02:44:26;;;;;;;1999.90;999.90;;;;;;;12.26;67.95;95662.50;4956759;28;20075;-73
2022/05/01 02:46:51;;;;;;;1999.90;999.90;;;;;;;12.29;68.99;95673.34;4974168;28;20522;-74
2022/05/01 02:49:17;;;;;;;1999.90;999.90;;;;;;;12.29;67.98;95632.56;4973722;28;20569;-75
2022/05/01 02:51:43;;;;;;;1999.90;999.90;;;;;;;12.95;67.01;95671.00;4974248;28;20033;-74
2022/05/01 02:54:08;;;;;;;1999.90;999.90;;;;;;;13.20;66.88;95685.56;4952521;29;20492;-74
2022/05/01 02:56:34;;;;;;;1999.90;999.90;;;;;;;12.43;67.23;95643.94;4954589;28;20031;-73
2022/05/01 02:59:00;;;;;;;1999.90;999.90;;;;;;;13.36;66.45;95686.78;4954272;29;20094;-74
2022/05/01 03:01:26;;;;;;;1999.90;999.90;;;;;;;13.41;66.27;95688.50;4954475;28;20098;-75
2022/05/01 03:03:51;;;;;;;1999.90;999.90;;;;;;;12.49;67.59;95674.78;4955190;29;20059;-75
2022/05/01 03:06:17;;;;;;;1999.90;999.90;;;;;;;13.19;66.29;95660.72;4954529;29;20035;-74
2022/05/01 03:08:42;;;;;;;158.43;145.70;;;;;;;13.34;65.94;95624.06;4964615;28;20479;-75
2022/05/01 03:11:08;;;;;;;1999.90;999.90;;;;;;;13.49;65.35;95685.09;4973699;28;20527;-74
2022/05/01 03:13:34;;;;;;;1999.90;999.90;;;;;;;13.15;65.90;95638.41;4973737;28;20031;-74
2022/05/01 03:16:00;;;;;;;1999.90;999.90;;;;;;;12.11;68.83;95634.28;4973208;28;20725;-74
2022/05/01 03:23:54;;;;;;;1999.90;999.90;;;;;;;12.06;69.88;95653.84;4973866;28;20042;-74
2022/05/01 03:26:19;;;;;;;1999.90;999.90;;;;;;;11.93;70.12;95655.47;4973394;28;20027;-74
2022/05/01 03:28:45;;;;;;;1999.90;999.90;;;;;;;11.69;70.94;95660.22;4972926;28;20058;-75
2022/05/01 03:31:12;;;;;;;1999.90;999.90;;;;;;;11.28;71.86;95637.03;4972037;28;20026;-74
2022/05/01 03:33:37;;;;;;;1999.90;999.90;;;;;;;11.74;69.50;95641.44;4973076;28;20022;-74
2022/05/01 03:36:06;;;;;;;1999.90;999.90;;;;;;;12.22;69.51;95675.63;4973291;28;20034;-74
2022/05/01 03:38:32;;;;;;;1999.90;999.90;;;;;;;12.00;69.44;95644.38;4973191;28;20420;-75
2022/05/01 03:40:58;;;;;;;1999.90;999.90;;;;;;;12.00;70.14;95654.25;4972951;28;20030;-74
2022/05/01 03:43:23;;;;;;;1999.90;999.90;;;;;;;11.04;69.51;95535.25;4973189;28;20033;-74
2022/05/01 03:45:49;;;;;;;1999.90;999.90;;;;;;;11.08;72.95;95656.06;4972159;28;20031;-74
2022/05/01 03:48:14;;;;;;;1999.90;999.90;;;;;;;11.21;73.11;95663.28;4972544;28;20030;-73
2022/05/01 03:50:40;;;;;;;1999.90;999.90;;;;;;;11.43;71.55;95667.91;4973025;28;20614;-75
2022/05/01 03:53:09;;;;;;;1999.90;999.90;;;;;;;10.90;73.08;95679.78;4972803;28;20035;-75
2022/05/01 03:55:36;;;;;;;1999.90;999.90;;;;;;;10.79;73.51;95680.22;4972957;28;20483;-74
2022/05/01 03:58:01;;;;;;;1999.90;999.90;;;;;;;10.57;74.56;95640.94;4955324;28;20390;-74
2022/05/01 04:00:27;;;;;;;1999.90;999.90;;;;;;;10.48;74.58;95656.00;4955251;28;20026;-74
2022/05/01 04:02:53;;;;;;;1999.90;999.90;;;;;;;10.91;73.49;95681.38;4954666;28;20058;-74
2022/05/01 04:05:18;;;;;;;1999.90;999.90;;;;;;;11.19;72.31;95655.56;4972479;28;20050;-74
2022/05/01 04:07:44;;;;;;;1999.90;999.90;;;;;;;11.12;72.71;95678.34;4972712;28;20018;-74
2022/05/01 04:10:11;;;;;;;1999.90;999.90;;;;;;;11.41;70.66;95683.38;4972239;28;20029;-74
2022/05/01 04:12:41;;;;;;;1999.90;999.90;;;;;;;11.05;72.32;95683.25;4972624;28;20031;-75
2022/05/01 04:15:08;;;;;;;1999.90;999.90;;;;;;;10.97;70.91;95636.03;4972427;28;20415;-74
2022/05/01 04:17:39;;;;;;;1999.90;999.90;;;;;;;11.15;70.66;95635.94;4971459;28;20588;-75
2022/05/01 04:20:15;;;;;;;1999.90;999.90;;;;;;;12.08;69.79;95664.19;4971894;28;20038;-74
2022/05/01 04:22:46;;;;;;;1999.90;999.90;;;;;;;11.76;68.24;95654.47;4972335;28;20037;-74
2022/05/01 04:25:15;;;;;;;1999.90;999.90;;;;;;;11.99;68.76;95679.34;4971697;28;20034;-75
2022/05/01 04:27:41;;;;;;;1999.90;999.90;;;;;;;12.27;67.67;95654.19;4954101;28;20479;-75
2022/05/01 04:30:08;;;;;;;1999.90;999.90;;;;;;;11.85;68.59;95682.81;4970869;28;20038;-75
2022/05/01 04:32:33;;;;;;;1999.90;999.90;;;;;;;11.32;69.33;95647.91;4971060;28;20482;-75
2022/05/01 04:34:58;;;;;;;1999.90;999.90;;;;;;;11.36;69.42;95656.84;4972108;28;20170;-75
2022/05/01 04:37:25;;;;;;;1999.90;999.90;;;;;;;11.89;68.56;95665.16;4972112;28;20495;-75
2022/05/01 04:39:50;;;;;;;1999.90;999.90;;;;;;;11.74;68.40;95667.31;4970763;28;20142;-74
2022/05/01 04:42:17;;;;;;;1999.90;999.90;;;;;;;11.77;68.47;95688.03;4950791;29;20106;-74
2022/05/01 04:44:43;;;;;;;1999.90;999.90;;;;;;;11.51;68.68;95658.44;4952740;29;20031;-74
2022/05/01 04:47:08;;;;;;;1999.90;999.90;;;;;;;11.47;69.22;95689.44;4952465;28;20030;-74
2022/05/01 04:49:34;;;;;;;1999.90;999.90;;;;;;;11.33;70.49;95694.75;4952025;29;20027;-73
2022/05/01 04:52:01;;;;;;;1999.90;999.90;;;;;;;11.49;69.54;95664.06;4964249;28;20030;-75
2022/05/01 04:54:26;;;;;;;1999.90;999.90;;;;;;;11.75;68.97;95687.53;4971701;28;20027;-74
2022/05/01 04:57:08;;;;;;;1999.90;999.90;;;;;;;11.45;67.85;95634.56;4971767;28;20031;-74
2022/05/01 04:59:34;;;;;;;1999.90;999.90;;;;;;;12.00;67.69;95681.72;4971172;28;20023;-74
2022/05/01 05:02:00;;;;;;;1999.90;999.90;;;;;;;11.73;68.59;95676.41;4971541;28;20044;-75
2022/05/01 05:04:27;;;;;;;1999.90;999.90;;;;;;;12.56;66.27;95690.34;4954464;28;20034;-74
2022/05/01 05:06:54;;;;;;;1999.90;999.90;;;;;;;12.63;65.38;95698.72;4970815;28;20042;-74
2022/05/01 05:12:06;;;;;;;1999.90;999.90;;;;;;;12.11;66.96;95676.94;4971759;28;20533;-75
2022/05/01 05:14:31;;;;;;;1999.90;999.90;;;;;;;12.01;66.96;95682.50;4971492;28;20026;-73
2022/05/01 05:16:57;;;;;;;1999.90;999.90;;;;;;;12.03;66.18;95670.47;4971280;28;20480;-74
2022/05/01 05:19:23;;;;;;;1999.90;999.90;;;;;;;12.51;65.18;95655.78;4971017;28;20513;-74
2022/05/01 05:21:48;;;;;;;1999.90;999.90;;;;;;;12.58;65.36;95706.84;4970805;28;20031;-73
2022/05/01 05:24:14;;;;;;;1999.90;999.90;;;;;;;12.20;65.95;95691.16;4954116;28;20023;-75
2022/05/01 05:26:39;;;;;;;1999.90;999.90;;;;;;;11.74;66.99;95677.97;4971269;28;20052;-74
2022/05/01 05:29:05;;;;;;;1999.90;999.90;;;;;;;12.39;66.96;95696.34;4999103;23;20495;-68
2022/05/01 05:31:30;;;;;;;1999.90;999.90;;;;;;;12.70;65.11;95677.75;4989471;28;20064;-68
2022/05/01 05:33:55;;;;;;;1999.90;999.90;;;;;;;13.23;63.79;95677.75;4990617;28;20382;-68
2022/05/01 05:36:21;;;;;;;1999.90;999.90;;;;;;;12.22;64.46;95623.06;4990621;28;20026;-68
2022/05/01 05:38:46;;;;;;;1999.90;999.90;;;;;;;13.21;63.18;95700.53;4990201;28;20026;-68
2022/05/01 05:41:12;;;;;;;1999.90;999.90;;;;;;;12.36;64.80;95684.38;4990664;28;20462;-67
2022/05/01 05:43:37;;;;;;;1999.90;999.90;;;;;;;13.01;64.01;95694.59;4989231;28;20189;-69
2022/05/01 05:46:02;;;;;;;1999.90;999.90;;;;;;;11.87;66.19;95682.50;4990462;28;20037;-67
2022/05/01 05:48:28;;;;;;;1999.90;999.90;;;;;;;11.98;65.69;95697.22;4990095;28;20026;-68
2022/05/01 05:50:53;;;;;;;1999.90;999.90;;;;;;;12.07;66.14;95705.28;4989353;28;20109;-68
2022/05/01 05:53:18;;;;;;;1999.90;999.90;;;;;;;12.45;64.60;95698.59;4990529;28;20030;-68
2022/05/01 05:55:45;;;;;;;1999.90;999.90;;;;;;;12.68;64.55;95712.72;4990572;28;20125;-68
2022/05/01 05:58:10;;;;;;;1999.90;999.90;;;;;;;12.73;63.06;95688.59;4989045;28;20038;-68
2022/05/01 06:00:36;;;;;;;1999.90;999.90;;;;;;;12.88;63.21;95690.09;4990426;28;20045;-69
2022/05/01 06:03:01;;;;;;;1999.90;999.90;;;;;;;13.34;62.66;95698.88;4989164;28;20035;-67
2022/05/01 06:05:27;;;;;;;1999.90;999.90;;;;;;;13.57;61.56;95711.09;4989696;28;20058;-67
2022/05/01 06:07:53;;;;;;;1999.90;999.90;;;;;;;13.26;61.63;95711.09;4990170;28;20022;-67
2022/05/01 06:10:18;;;;;;;1999.90;999.90;;;;;;;13.18;62.15;95704.56;4990090;28;20030;-67
2022/05/01 06:12:44;;;;;;;1999.90;999.90;;;;;;;12.68;63.66;95718.06;4990581;28;20037;-68
2022/05/01 06:15:10;;;;;;;1999.90;999.90;;;;;;;13.02;63.02;95701.50;4990124;28;20525;-67
2022/05/01 06:17:35;;;;;;;1999.90;999.90;;;;;;;11.39;67.08;95705.00;4990294;28;20030;-67
2022/05/01 06:20:01;;;;;;;1999.90;999.90;;;;;;;12.36;65.59;95734.28;4988092;28;20069;-66
2022/05/01 06:22:26;;;;;;;1999.90;999.90;;;;;;;11.50;67.25;95726.91;4970941;28;20090;-67
2022/05/01 06:24:51;;;;;;;1999.90;999.90;;;;;;;12.39;65.55;95721.16;4971035;28;20038;-67
2022/05/01 06:27:17;;;;;;;1999.90;999.90;;;;;;;12.23;65.81;95726.03;4970649;28;20029;-67
2022/05/01 06:29:44;;;;;;;1999.90;999.90;;;;;;;12.28;65.15;95713.66;4970394;28;20073;-67
2022/05/01 06:32:10;;;;;;;1999.90;999.90;;;;;;;13.31;63.42;95718.19;4969433;28;20066;-67
2022/05/01 06:34:36;;;;;;;1999.90;999.90;;;;;;;13.04;62.61;95724.44;4970482;28;20101;-66
2022/05/01 06:37:03;;;;;;;1999.90;999.90;;;;;;;12.20;64.56;95720.50;4985543;28;20042;-67
2022/05/01 06:39:28;;;;;;;1999.90;999.90;;;;;;;11.44;67.56;95726.22;4977461;28;20038;-67
2022/05/01 06:41:54;;;;;;;1999.90;999.90;;;;;;;11.65;67.23;95723.16;4990136;28;20371;-67
2022/05/01 06:44:19;;;;;;;1999.90;999.90;;;;;;;11.68;67.09;95742.03;4989902;28;20356;-67
2022/05/01 06:46:45;;;;;;;1999.90;999.90;;;;;;;11.74;66.73;95742.72;4989940;28;20057;-67
2022/05/01 06:49:11;;;;;;;1999.90;999.90;;;;;;;11.86;66.91;95740.38;4988339;28;20034;-67
2022/05/01 06:51:36;;;;;;;1999.90;999.90;;;;;;;11.24;67.96;95750.53;4974729;28;20073;-68
2022/05/01 06:54:03;;;;;;;1999.90;999.90;;;;;;;11.57;67.40;95737.19;4973990;28;20062;-68
2022/05/01 06:56:28;;;;;;;1999.90;999.90;;;;;;;11.62;67.72;95734.44;4973736;28;20058;-67
2022/05/01 06:58:53;;;;;;;1999.90;999.90;;;;;;;11.71;67.17;95736.09;4973495;28;20109;-68
2022/05/01 07:01:19;;;;;;;1999.90;999.90;;;;;;;11.39;67.07;95736.19;4973799;28;20035;-68
2022/05/01 07:03:46;;;;;;;1999.90;999.90;;;;;;;11.21;68.04;95753.81;4973861;28;20030;-69
2022/05/01 07:06:12;;;;;;;1999.90;999.90;;;;;;;11.34;67.58;95752.25;4990358;28;20466;-69
2022/05/01 07:08:37;;;;;;;1999.90;999.90;;;;;;;11.20;68.14;95747.66;4992776;28;20034;-67
2022/05/01 07:11:03;;;;;;;1999.90;999.90;;;;;;;11.14;68.24;95745.41;4993265;28;20030;-68
2022/05/01 07:13:28;;;;;;;1999.90;999.90;;;;;;;10.97;68.67;95729.97;4993084;28;20556;-67
2022/05/01 07:15:53;;;;;;;1999.90;999.90;;;;;;;11.36;68.38;95756.22;4992991;28;20027;-68
2022/05/01 07:18:19;;;;;;;1999.90;999.90;;;;;;;11.06;68.31;95720.25;4992508;28;20065;-67
2022/05/01 07:20:46;;;;;;;1999.90;999.90;;;;;;;11.22;68.93;95725.31;4985664;28;20124;-67
2022/05/01 07:23:11;;;;;;;1999.90;999.90;;;;;;;11.17;68.20;95748.28;4992880;28;20033;-67
2022/05/01 07:25:37;;;;;;;1999.90;999.90;;;;;;;11.63;67.67;95736.00;4992891;28;20030;-67
2022/05/01 07:28:02;;;;;;;1999.90;999.90;;;;;;;11.62;66.40;95745.09;4992446;28;20499;-68
2022/05/01 07:30:28;;;;;;;1999.90;999.90;;;;;;;11.84;66.97;95747.88;4992743;28;20041;-67
2022/05/01 07:32:53;;;;;;;1999.90;999.90;;;;;;;11.67;66.39;95750.31;4991323;28;21506;-68
2022/05/01 07:35:19;;;;;;;1999.90;999.90;;;;;;;11.90;65.78;95740.56;4992484;28;20489;-68
2022/05/01 07:37:44;;;;;;;1999.90;999.90;;;;;;;12.04;64.49;95722.69;4992569;28;20033;-68
2022/05/01 07:40:11;;;;;;;1999.90;999.90;;;;;;;12.72;62.46;95718.25;4990898;28;20474;-67
2022/05/01 07:42:36;;;;;;;1999.90;999.90;;;;;;;12.66;62.83;95722.16;4991860;28;20076;-64
2022/05/01 07:45:03;;;;;;;1999.90;999.90;;;;;;;13.11;61.51;95730.16;4992567;28;20441;-64
2022/05/01 07:47:28;;;;;;;1999.90;999.90;;;;;;;13.22;60.45;95726.16;4992300;28;20041;-65
2022/05/01 07:49:53;;;;;;;1999.90;999.90;;;;;;;13.66;59.43;95748.53;4992001;28;20022;-64
2022/05/01 07:52:19;;;;;;;1999.90;999.90;;;;;;;12.88;61.00;95738.16;4990482;28;20030;-64
2022/05/01 07:54:44;;;;;;;1999.90;999.90;;;;;;;12.87;61.23;95723.25;4992450;28;20470;-64
2022/05/01 07:57:10;;;;;;;1999.90;999.90;;;;;;;12.71;61.36;95714.03;4991370;28;20034;-65
2022/05/01 07:59:35;;;;;;;1999.90;999.90;;;;;;;11.45;64.76;95709.13;4973623;28;20505;-65
2022/05/01 08:02:00;;;;;;;1999.90;999.90;;;;;;;11.43;66.22;95747.81;4971657;28;20027;-66
2022/05/01 08:04:29;;;;;;;1999.90;999.90;;;;;;;11.39;66.95;95755.59;4972853;28;20459;-65
2022/05/01 08:07:02;;;;;;;1999.90;999.90;;;;;;;11.67;66.08;95739.66;4973576;28;20039;-64
2022/05/01 08:09:29;;;;;;;1999.90;999.90;;;;;;;11.58;66.11;95760.09;4987376;28;20386;-64
2022/05/01 08:11:55;;;;;;;1999.90;999.90;;;;;;;12.27;64.07;95758.22;4991065;28;20026;-65
2022/05/01 08:14:21;;;;;;;1999.90;999.90;;;;;;;12.36;63.70;95758.31;4987729;28;20360;-66
2022/05/01 08:16:49;;;;;;;1999.90;999.90;;;;;;;13.30;61.72;95754.00;4970914;28;20054;-65
2022/05/01 08:21:58;;;;;;;1999.90;999.90;;;;;;;12.14;62.56;95730.47;4991597;28;20073;-64
2022/05/01 08:24:23;;;;;;;1999.90;999.90;;;;;;;13.13;60.65;95758.13;4982537;28;20479;-64
2022/05/01 08:26:49;;;;;;;1999.90;999.90;;;;;;;13.41;59.74;95729.41;4990570;28;20035;-65
2022/05/01 08:29:15;;;;;;;1999.90;999.90;;;;;;;13.13;61.14;95752.00;5005176;28;20030;-65
2022/05/01 08:31:42;;;;;;;1999.90;999.90;;;;;;;13.30;60.49;95712.03;4990355;28;20489;-65
2022/05/01 08:34:09;;;;;;;1999.90;999.90;;;;;;;14.09;58.62;95742.56;4989875;28;20037;-64
2022/05/01 08:36:35;;;;;;;1999.90;999.90;;;;;;;14.19;57.17;95734.25;4990199;28;20065;-67
2022/05/01 08:39:00;;;;;;;1999.90;999.90;;;;;;;14.47;55.97;95748.13;5014258;28;20037;-66
2022/05/01 08:41:31;;;;;;;1999.90;999.90;;;;;;;14.80;55.74;95751.19;4988745;28;20038;-66
2022/05/01 08:43:57;;;;;;;1999.90;999.90;;;;;;;14.86;54.87;95755.25;4991053;28;20427;-64
2022/05/01 08:46:28;;;;;;;1999.90;999.90;;;;;;;13.57;58.20;95761.09;4990167;28;20025;-65
2022/05/01 08:49:04;;;;;;;1999.90;999.90;;;;;;;12.47;61.03;95755.09;4989586;28;20101;-64
2022/05/01 08:51:41;;;;;;;1999.90;999.90;;;;;;;12.47;61.74;95765.00;5003789;28;20033;-67
2022/05/01 08:54:08;;;;;;;1999.90;999.90;;;;;;;12.02;63.61;95762.19;4988544;28;20049;-65
2022/05/01 08:56:35;;;;;;;1999.90;999.90;;;;;;;12.31;62.51;95756.53;4989417;28;20026;-62
2022/05/01 08:59:04;;;;;;;1999.90;999.90;;;;;;;12.45;61.37;95733.28;5014517;28;20172;-66
2022/05/01 09:01:33;;;;;;;1999.90;999.90;;;;;;;12.40;62.28;95737.94;5005672;28;20038;-65
2022/05/01 09:03:58;;;;;;;1999.90;999.90;;;;;;;12.94;61.58;95746.84;4989967;28;20029;-63
2022/05/01 09:06:24;;;;;;;1999.90;999.90;;;;;;;13.87;58.65;95746.91;4990819;28;20030;-65
2022/05/01 09:08:51;;;;;;;1999.90;999.90;;;;;;;12.38;61.98;95756.91;4989424;28;20034;-62
2022/05/01 09:14:03;;;;;;;1999.90;999.90;;;;;;;13.31;59.81;95743.03;4988765;28;20725;-63
2022/05/01 09:16:28;;;;;;;1999.90;999.90;;;;;;;12.84;61.67;95731.84;4989775;28;20038;-65
2022/05/01 09:18:54;;;;;;;1999.90;999.90;;;;;;;13.02;60.58;95735.44;4989325;28;20097;-63
2022/05/01 09:21:19;;;;;;;1999.90;999.90;;;;;;;13.24;59.94;95743.44;4990649;28;20031;-63
2022/05/01 09:23:46;;;;;;;1999.90;999.90;;;;;;;13.14;59.89;95726.84;4989951;28;20540;-62
2022/05/01 09:26:14;;;;;;;1999.90;999.90;;;;;;;13.36;59.36;95726.88;4989902;28;20022;-62
2022/05/01 09:28:54;;;;;;;1999.90;999.90;;;;;;;13.77;58.27;95753.31;4988911;28;20061;-64
2022/05/01 09:31:43;;;;;;;1999.90;999.90;;;;;;;13.17;60.13;95740.41;4971087;28;20106;-65
2022/05/01 09:34:26;;;;;;;1999.90;999.90;;;;;;;13.39;60.07;95736.94;4964209;28;20045;-64
2022/05/01 09:36:52;;;;;;;1999.90;999.90;;;;;;;13.53;59.86;95732.28;4988775;28;20076;-64
2022/05/01 09:39:19;;;;;;;1999.90;999.90;;;;;;;12.89;61.54;95747.75;4987584;28;20117;-65
2022/05/01 09:41:44;;;;;;;1999.90;999.90;;;;;;;13.76;59.73;95741.03;4988936;28;20429;-63
2022/05/01 09:44:16;;;;;;;1999.90;999.90;;;;;;;14.47;56.28;95716.81;5007992;28;20177;-64
2022/05/01 09:46:47;;;;;;;1999.90;999.90;;;;;;;13.97;58.04;95749.28;4988892;28;20046;-67
2022/05/01 09:49:16;;;;;;;1999.90;999.90;;;;;;;15.17;54.86;95739.00;4988415;28;20023;-64
2022/05/01 09:51:55;;;;;;;1999.90;999.90;;;;;;;16.40;52.47;95740.09;4987901;28;20026;-67
2022/05/01 09:54:22;;;;;;;1999.90;999.90;;;;;;;15.93;51.81;95732.16;4989737;28;20037;-67
2022/05/01 09:56:57;;;;;;;1999.90;999.90;;;;;;;15.26;53.05;95734.41;4986292;28;20526;-64
2022/05/01 09:59:24;;;;;;;1999.90;999.90;;;;;;;15.81;51.42;95744.34;4982731;28;20721;-66
2022/05/01 10:02:02;;;;;;;1999.90;999.90;;;;;;;15.98;50.81;95742.72;4987344;28;20093;-66
2022/05/01 10:04:29;;;;;;;1999.90;999.90;;;;;;;16.54;49.75;95725.31;4982294;28;20394;-68
2022/05/01 10:06:56;;;;;;;1999.90;999.90;;;;;;;17.73;49.10;95733.72;4988603;28;20057;-68
2022/05/01 10:09:25;;;;;;;1999.90;999.90;;;;;;;16.55;48.39;95710.78;4973998;28;20042;-67
2022/05/01 10:11:59;;;;;;;1999.90;999.90;;;;;;;16.39;48.98;95715.16;4981032;28;20085;-67
2022/05/01 10:14:26;;;;;;;1999.90;999.90;;;;;;;15.34;51.52;95725.56;4984633;28;20026;-67
2022/05/01 10:16:54;;;;;;;1999.90;999.90;;;;;;;15.03;52.71;95717.72;4984756;28;20045;-67
2022/05/01 10:19:23;;;;;;;1999.90;999.90;;;;;;;14.89;53.17;95719.78;4979353;28;20046;-67
2022/05/01 10:21:50;;;;;;;1999.90;999.90;;;;;;;16.24;49.15;95691.56;4970469;28;20101;-67
2022/05/01 10:24:17;;;;;;;1999.90;999.90;;;;;;;16.57;48.70;95705.84;4979874;28;20534;-68
2022/05/01 10:27:04;;;;;;;1999.90;999.90;;;;;;;17.21;47.62;95711.97;4992558;28;20027;-68
2022/05/01 10:32:51;;;;;;;1999.90;999.90;;;;;;;16.64;49.59;95716.09;4985820;28;20042;-66
2022/05/01 10:35:51;;;;;;;1999.90;999.90;;;;;;;17.31;46.06;95690.03;4979264;28;20029;-66
2022/05/01 10:38:29;;;;;;;1999.90;999.90;;;;;;;17.21;46.70;95712.75;4989238;28;20077;-66
2022/05/01 10:40:57;;;;;;;1999.90;999.90;;;;;;;17.85;45.02;95689.88;4996122;28;20091;-67
2022/05/01 10:43:38;;;;;;;1999.90;999.90;;;;;;;17.54;45.26;95707.31;5011447;28;20034;-68
2022/05/01 10:46:24;;;;;;;1999.90;999.90;;;;;;;17.76;44.18;95686.50;5012599;28;20382;-67
2022/05/01 10:48:49;;;;;;;1999.90;999.90;;;;;;;16.38;46.99;95700.16;4998543;28;20074;-67
2022/05/01 10:51:27;;;;;;;1999.90;999.90;;;;;;;16.74;46.44;95704.97;4973786;28;20154;-68
2022/05/01 10:54:17;;;;;;;1999.90;999.90;;;;;;;17.98;43.88;95698.75;4973372;28;20102;-68
2022/05/01 10:56:45;;;;;;;1999.90;999.90;;;;;;;18.00;42.93;95670.38;4992282;28;20041;-69
2022/05/01 10:59:29;;;;;;;1999.90;999.90;;;;;;;19.07;41.44;95688.84;4993087;28;20019;-68
2022/05/01 11:01:55;;;;;;;1999.90;999.90;;;;;;;18.89;41.94;95656.81;4992109;28;20037;-73
2022/05/01 11:04:21;;;;;;;1999.90;999.90;;;;;;;18.66;41.96;95648.44;4991851;28;20030;-73
2022/05/01 11:06:51;;;;;;;1999.90;999.90;;;;;;;17.60;44.36;95671.00;4983025;28;20019;-72
2022/05/01 11:09:21;;;;;;;1999.90;999.90;;;;;;;17.28;44.21;95639.59;4973203;28;20490;-71
2022/05/01 11:11:47;;;;;;;1999.90;999.90;;;;;;;18.32;42.70;95657.06;4986583;28;20081;-71
2022/05/01 11:14:13;;;;;;;1999.90;999.90;;;;;;;19.13;42.23;95650.47;4989026;28;20022;-74
2022/05/01 11:16:52;;;;;;;1999.90;999.90;;;;;;;18.03;43.71;95668.91;4979736;28;20783;-68
2022/05/01 11:19:17;;;;;;;1999.90;999.90;;;;;;;18.66;42.52;95663.81;4980463;28;20018;-69